Time;durP1;ratioP1;P1;durP2;ratioP2;P2;SDS_P1;SDS_P2;PMS_P1;PMS_P2;Temp;Humidity;BMP_temperature;BMP_pressure;BME280_temperature;BME280_humidity;BME280_pressure;Samples;Min_cycle;Max_cycle;Signal;HPM_P1;HPM_P2
2021/09/19 00:00:12;;;;;;;9.48;8.45;;;12.20;99.90;;;;;;5054955;28;20025;-65
2021/09/19 00:02:38;;;;;;;8.27;7.47;;;12.20;99.90;;;;;;5073177;28;20549;-65
2021/09/19 00:05:06;;;;;;;9.55;7.63;;;12.20;99.90;;;;;;5072313;28;20056;-65
2021/09/19 00:07:32;;;;;;;8.70;7.47;;;12.10;99.90;;;;;;5072790;28;20523;-65
2021/09/19 00:09:57;;;;;;;8.68;7.78;;;12.10;99.90;;;;;;5071900;28;20123;-64
2021/09/19 00:12:23;;;;;;;11.27;8.80;;;12.10;99.90;;;;;;5072651;28;20116;-65
2021/09/19 00:14:49;;;;;;;9.13;7.60;;;12.10;99.90;;;;;;5072446;28;20031;-65
2021/09/19 00:17:17;;;;;;;11.27;7.95;;;12.00;99.90;;;;;;5072144;28;20064;-66
2021/09/19 00:19:43;;;;;;;9.30;8.38;;;12.00;99.90;;;;;;5072914;28;20032;-65
2021/09/19 00:22:08;;;;;;;9.13;8.13;;;12.00;99.90;;;;;;5071889;28;20052;-63
2021/09/19 00:24:34;;;;;;;9.25;8.25;;;12.10;99.90;;;;;;5071872;28;20386;-66
2021/09/19 00:27:00;;;;;;;9.82;8.02;;;12.10;99.90;;;;;;5071683;28;20386;-66
2021/09/19 00:29:26;;;;;;;9.65;8.65;;;12.10;99.90;;;;;;5072672;28;20385;-64
2021/09/19 00:31:51;;;;;;;8.95;8.05;;;12.10;99.90;;;;;;5071507;28;20385;-64
2021/09/19 00:34:17;;;;;;;10.35;8.20;;;12.10;99.90;;;;;;5071672;28;20039;-64
2021/09/19 00:36:43;;;;;;;10.15;8.18;;;12.10;99.90;;;;;;5072036;28;20107;-64
2021/09/19 00:39:08;;;;;;;10.05;8.45;;;12.10;99.90;;;;;;5071522;28;20029;-64
2021/09/19 00:41:35;;;;;;;10.95;8.23;;;12.00;99.90;;;;;;5072111;28;20474;-64
2021/09/19 00:44:05;;;;;;;9.02;7.40;;;12.00;99.90;;;;;;5071301;28;20480;-64
2021/09/19 00:46:31;;;;;;;;;;;12.00;99.90;;;;;;5071495;28;20052;-64
2021/09/19 00:48:56;;;;;;;9.10;8.10;;;12.00;99.90;;;;;;5071198;28;19962;-64
2021/09/19 00:51:22;;;;;;;9.70;8.70;;;11.90;99.90;;;;;;5070883;28;20036;-64
2021/09/19 00:53:50;;;;;;;10.20;8.02;;;11.80;99.90;;;;;;5071001;28;20017;-64
2021/09/19 00:56:22;;;;;;;9.35;8.25;;;11.70;99.90;;;;;;5071235;28;20035;-64
2021/09/19 00:58:51;;;;;;;9.27;8.30;;;11.70;99.90;;;;;;5065482;28;20506;-64
2021/09/19 01:01:17;;;;;;;10.63;9.05;;;11.60;99.90;;;;;;5066889;28;20119;-64
2021/09/19 01:03:43;;;;;;;9.55;8.48;;;11.60;99.90;;;;;;5072179;28;20112;-64
2021/09/19 01:06:09;;;;;;;10.82;8.93;;;11.60;99.90;;;;;;5057917;28;20029;-64
2021/09/19 01:08:34;;;;;;;9.70;8.60;;;11.60;99.90;;;;;;5071898;28;20020;-64
2021/09/19 01:11:00;;;;;;;10.25;8.50;;;11.50;99.90;;;;;;5070689;28;20056;-64
2021/09/19 01:13:27;;;;;;;8.45;7.55;;;11.50;99.90;;;;;;5071252;28;20036;-64
2021/09/19 01:15:53;;;;;;;13.70;9.43;;;11.50;99.90;;;;;;5070826;28;20465;-64
2021/09/19 01:18:20;;;;;;;11.57;10.13;;;11.50;99.90;;;;;;5071640;28;20025;-64
2021/09/19 01:20:46;;;;;;;11.45;10.25;;;11.50;99.90;;;;;;5071619;28;20474;-64
2021/09/19 01:23:13;;;;;;;10.43;9.32;;;11.40;99.90;;;;;;5071144;28;20029;-63
2021/09/19 01:25:42;;;;;;;13.07;9.50;;;11.40;99.90;;;;;;5058479;28;20389;-64
2021/09/19 01:28:08;;;;;;;11.70;9.38;;;11.40;99.90;;;;;;5070850;28;20020;-63
2021/09/19 01:30:36;;;;;;;13.05;9.25;;;11.40;99.90;;;;;;5066477;28;20032;-64
2021/09/19 01:33:03;;;;;;;9.60;8.60;;;11.30;99.90;;;;;;5070996;28;20063;-64
2021/09/19 01:35:29;;;;;;;10.75;9.63;;;11.30;99.90;;;;;;5071454;28;20032;-63
2021/09/19 01:37:56;;;;;;;11.52;9.50;;;11.30;99.90;;;;;;5071154;28;20451;-64
2021/09/19 01:40:22;;;;;;;13.40;10.73;;;11.30;99.90;;;;;;5070785;28;20060;-64
2021/09/19 01:42:48;;;;;;;13.65;10.30;;;11.30;99.90;;;;;;5071429;28;20029;-64
2021/09/19 01:45:14;;;;;;;13.77;11.25;;;11.30;99.90;;;;;;5070498;28;20040;-64
2021/09/19 01:47:40;;;;;;;13.07;10.07;;;11.30;99.90;;;;;;5071641;28;20025;-64
2021/09/19 01:50:07;;;;;;;15.38;10.70;;;11.30;99.90;;;;;;5070880;28;20037;-64
2021/09/19 01:52:33;;;;;;;12.60;11.27;;;11.30;99.90;;;;;;5071244;28;20037;-64
2021/09/19 01:54:59;;;;;;;11.95;10.50;;;11.30;99.90;;;;;;5070131;28;20116;-63
2021/09/19 01:57:25;;;;;;;14.25;10.73;;;11.30;99.90;;;;;;5071113;28;20032;-64
2021/09/19 01:59:53;;;;;;;10.75;9.48;;;11.30;99.90;;;;;;5071248;28;20020;-64
2021/09/19 02:02:20;;;;;;;12.32;10.68;;;11.20;99.90;;;;;;5069917;28;20033;-64
2021/09/19 02:04:48;;;;;;;12.45;11.15;;;11.20;99.90;;;;;;5071102;28;20462;-64
2021/09/19 02:07:14;;;;;;;13.70;11.07;;;11.10;99.90;;;;;;5070885;28;20021;-63
2021/09/19 02:09:39;;;;;;;13.75;11.80;;;11.10;99.90;;;;;;5070155;28;20386;-63
2021/09/19 02:12:05;;;;;;;13.57;11.77;;;11.00;99.90;;;;;;5059159;28;20063;-63
2021/09/19 02:14:31;;;;;;;13.00;11.32;;;11.00;99.90;;;;;;5071364;28;20112;-63
2021/09/19 02:16:58;;;;;;;14.80;11.68;;;10.90;99.90;;;;;;5070463;28;20475;-63
2021/09/19 02:19:24;;;;;;;13.57;11.38;;;10.90;99.90;;;;;;5071458;28;20488;-63
2021/09/19 02:21:49;;;;;;;13.65;10.88;;;10.90;99.90;;;;;;5071150;28;20032;-64
2021/09/19 02:24:15;;;;;;;11.98;10.27;;;10.90;99.90;;;;;;5070529;28;20036;-63
2021/09/19 02:26:41;;;;;;;13.88;12.07;;;10.90;99.90;;;;;;5070931;28;20025;-63
2021/09/19 02:29:06;;;;;;;16.50;12.20;;;10.80;99.90;;;;;;5070334;28;20024;-64
2021/09/19 02:31:32;;;;;;;15.23;12.75;;;10.80;99.90;;;;;;5070902;28;20035;-64
2021/09/19 02:33:59;;;;;;;17.00;12.30;;;10.80;99.90;;;;;;5070985;28;20029;-64
2021/09/19 02:36:25;;;;;;;14.35;11.73;;;10.80;99.90;;;;;;5070436;28;20013;-64
2021/09/19 02:38:51;;;;;;;15.52;11.73;;;10.80;99.90;;;;;;5068199;28;20417;-63
2021/09/19 02:41:17;;;;;;;13.45;11.73;;;10.90;99.90;;;;;;5058460;28;20048;-64
2021/09/19 02:43:43;;;;;;;11.95;10.65;;;10.90;99.90;;;;;;5070943;28;20047;-64
2021/09/19 02:46:08;;;;;;;14.18;11.57;;;10.90;99.90;;;;;;5070023;28;20024;-64
2021/09/19 02:48:35;;;;;;;15.05;12.07;;;10.80;99.90;;;;;;5073322;28;20024;-64
2021/09/19 02:51:01;;;;;;;16.17;13.18;;;10.80;99.90;;;;;;5073384;28;20066;-64
2021/09/19 02:53:27;;;;;;;17.60;12.70;;;10.80;99.90;;;;;;5074324;28;20028;-64
2021/09/19 02:55:52;;;;;;;16.60;12.82;;;10.80;99.90;;;;;;5074194;28;20074;-64
2021/09/19 02:58:18;;;;;;;16.10;14.32;;;10.80;99.90;;;;;;5073482;28;20259;-65
2021/09/19 03:00:44;;;;;;;18.05;15.13;;;10.80;99.90;;;;;;5074002;28;20032;-65
2021/09/19 03:03:09;;;;;;;15.05;13.40;;;10.70;99.90;;;;;;5073601;28;20035;-64
2021/09/19 03:05:35;;;;;;;15.48;13.02;;;10.70;99.90;;;;;;5074174;28;20035;-64
2021/09/19 03:08:01;;;;;;;14.50;12.18;;;10.70;99.90;;;;;;5073672;28;20107;-63
2021/09/19 03:10:26;;;;;;;14.45;12.65;;;10.60;99.90;;;;;;5062169;28;20115;-64
2021/09/19 03:12:52;;;;;;;13.98;12.50;;;10.60;99.90;;;;;;5073636;28;20036;-64
2021/09/19 03:15:19;;;;;;;15.05;12.88;;;10.70;99.90;;;;;;5072417;28;20028;-64
2021/09/19 03:17:44;;;;;;;14.32;12.75;;;10.60;99.90;;;;;;5073909;28;20111;-64
2021/09/19 03:20:14;;;;;;;15.35;13.57;;;10.60;99.90;;;;;;5073413;28;20442;-63
2021/09/19 03:22:40;;;;;;;13.73;11.63;;;10.60;99.90;;;;;;5073838;28;20043;-63
2021/09/19 03:25:06;;;;;;;15.18;11.82;;;10.60;99.90;;;;;;5073050;28;20095;-64
2021/09/19 03:27:32;;;;;;;16.08;12.90;;;10.40;99.90;;;;;;5073195;28;20127;-64
2021/09/19 03:29:58;;;;;;;16.15;13.02;;;10.40;99.90;;;;;;5056150;28;20028;-63
2021/09/19 03:32:24;;;;;;;18.30;14.80;;;10.40;99.90;;;;;;5073594;28;20498;-64
2021/09/19 03:34:50;;;;;;;18.50;15.23;;;10.40;99.90;;;;;;5074029;28;20104;-64
2021/09/19 03:37:16;;;;;;;17.50;15.40;;;10.40;99.90;;;;;;5072791;28;20112;-64
2021/09/19 03:39:42;;;;;;;19.98;15.40;;;10.40;99.90;;;;;;5073783;28;20041;-64
2021/09/19 03:42:08;;;;;;;19.38;15.77;;;10.40;99.90;;;;;;5072367;28;20106;-64
2021/09/19 03:44:34;;;;;;;18.90;14.23;;;10.40;99.90;;;;;;5060681;28;20036;-64
2021/09/19 03:47:00;;;;;;;17.20;14.27;;;10.40;99.90;;;;;;5054369;28;20555;-63
2021/09/19 03:49:26;;;;;;;17.98;14.98;;;10.40;99.90;;;;;;5072955;28;20107;-64
2021/09/19 03:51:51;;;;;;;18.98;15.55;;;10.30;99.90;;;;;;5073910;28;20407;-64
2021/09/19 03:54:17;;;;;;;23.00;16.80;;;10.40;99.90;;;;;;5072737;28;20024;-64
2021/09/19 03:56:43;;;;;;;19.15;16.13;;;10.30;99.90;;;;;;5072838;28;20390;-64
2021/09/19 03:59:08;;;;;;;18.55;15.50;;;10.40;99.90;;;;;;5072064;28;20059;-64
2021/09/19 04:01:34;;;;;;;19.08;15.65;;;10.40;99.90;;;;;;5073043;28;20072;-63
2021/09/19 04:03:59;;;;;;;20.08;15.48;;;10.30;99.90;;;;;;5072637;28;20021;-64
2021/09/19 04:06:25;;;;;;;19.27;15.75;;;10.30;99.90;;;;;;5071098;28;20032;-64
2021/09/19 04:08:51;;;;;;;20.40;16.17;;;10.30;99.90;;;;;;5073254;28;20056;-63
2021/09/19 04:11:16;;;;;;;18.50;15.30;;;10.30;99.90;;;;;;5069871;28;20028;-65
2021/09/19 04:13:42;;;;;;;22.50;17.15;;;10.20;99.90;;;;;;5065112;28;20493;-64
2021/09/19 04:16:08;;;;;;;21.73;17.38;;;10.20;99.90;;;;;;5059464;28;20406;-64
2021/09/19 04:18:33;;;;;;;21.05;16.80;;;10.20;99.90;;;;;;5072159;28;20036;-64
2021/09/19 04:20:59;;;;;;;20.95;16.67;;;10.20;99.90;;;;;;5072520;28;20064;-64
2021/09/19 04:23:24;;;;;;;19.52;15.35;;;10.20;99.90;;;;;;5072429;28;20099;-64
2021/09/19 04:25:50;;;;;;;20.30;15.57;;;10.20;99.90;;;;;;5072471;28;20151;-64
2021/09/19 04:28:17;;;;;;;18.23;15.35;;;10.10;99.90;;;;;;5061263;28;20035;-66
2021/09/19 04:30:43;;;;;;;17.33;14.63;;;10.10;99.90;;;;;;5057226;28;20036;-66
2021/09/19 04:33:08;;;;;;;20.80;15.93;;;10.10;99.90;;;;;;5072001;28;20031;-66
2021/09/19 04:35:34;;;;;;;21.20;16.88;;;10.10;99.90;;;;;;5072590;28;20078;-66
2021/09/19 04:38:00;;;;;;;22.35;16.85;;;10.10;99.90;;;;;;5063639;28;20079;-66
2021/09/19 04:40:26;;;;;;;27.35;17.35;;;10.10;99.90;;;;;;5053302;28;20498;-63
2021/09/19 04:42:51;;;;;;;21.38;16.85;;;10.10;99.90;;;;;;5072272;28;20059;-64
2021/09/19 04:45:17;;;;;;;20.33;16.85;;;10.10;99.90;;;;;;5071398;28;20038;-64
2021/09/19 04:47:43;;;;;;;23.33;17.05;;;10.10;99.90;;;;;;5072409;28;20112;-66
2021/09/19 04:50:09;;;;;;;19.25;15.68;;;10.00;99.90;;;;;;5071597;28;20388;-65
2021/09/19 04:52:35;;;;;;;20.80;17.25;;;10.00;99.90;;;;;;5072367;28;20035;-66
2021/09/19 04:55:00;;;;;;;19.25;16.33;;;10.00;99.90;;;;;;5072247;28;20385;-66
2021/09/19 04:57:26;;;;;;;20.08;16.38;;;10.00;99.90;;;;;;5071629;28;20029;-66
2021/09/19 04:59:52;;;;;;;18.60;15.68;;;10.00;99.90;;;;;;5071716;28;20036;-66
2021/09/19 05:02:17;;;;;;;21.50;16.25;;;10.00;99.90;;;;;;5071372;28;20078;-66
2021/09/19 05:04:43;;;;;;;18.80;15.73;;;9.90;99.90;;;;;;5071967;28;20024;-66
2021/09/19 05:07:08;;;;;;;18.98;15.80;;;9.90;99.90;;;;;;5061095;28;20025;-66
2021/09/19 05:09:34;;;;;;;19.52;15.73;;;9.90;99.90;;;;;;5071739;28;20033;-66
2021/09/19 05:12:00;;;;;;;20.08;16.30;;;9.90;99.90;;;;;;5071032;28;20121;-66
2021/09/19 05:14:25;;;;;;;21.77;15.98;;;9.90;99.90;;;;;;5070372;28;20032;-66
2021/09/19 05:16:51;;;;;;;19.15;15.90;;;9.90;99.90;;;;;;5071918;28;20025;-65
2021/09/19 05:19:17;;;;;;;21.77;17.63;;;9.90;99.90;;;;;;5071138;28;20035;-66
2021/09/19 05:21:42;;;;;;;21.48;16.25;;;9.90;99.90;;;;;;5071305;28;20462;-66
2021/09/19 05:24:08;;;;;;;18.58;14.35;;;9.90;99.90;;;;;;5053417;28;20040;-65
2021/09/19 05:26:34;;;;;;;17.45;14.95;;;9.90;99.90;;;;;;5063600;28;20390;-63
2021/09/19 05:29:00;;;;;;;20.33;16.50;;;9.90;99.90;;;;;;5071656;28;20107;-66
2021/09/19 05:31:25;;;;;;;21.35;16.70;;;9.90;99.90;;;;;;5070420;28;20062;-67
2021/09/19 05:33:51;;;;;;;20.67;15.95;;;9.90;99.90;;;;;;5071768;28;20050;-65
2021/09/19 05:36:17;;;;;;;20.20;15.25;;;9.90;99.90;;;;;;5067867;28;21317;-67
2021/09/19 05:38:43;;;;;;;21.75;16.98;;;9.90;99.90;;;;;;5055518;28;20108;-65
2021/09/19 05:41:09;;;;;;;19.70;16.13;;;10.00;99.90;;;;;;5059786;28;20052;-67
2021/09/19 05:43:35;;;;;;;16.77;14.52;;;10.00;99.90;;;;;;5063192;28;20024;-64
2021/09/19 05:46:00;;;;;;;20.63;15.93;;;10.00;99.90;;;;;;5062742;28;20020;-65
2021/09/19 05:48:26;;;;;;;18.67;14.25;;;10.00;99.90;;;;;;5060445;28;20374;-64
2021/09/19 05:50:52;;;;;;;20.05;15.93;;;10.10;99.90;;;;;;5061842;28;20397;-64
2021/09/19 05:53:18;;;;;;;20.45;15.65;;;10.10;99.90;;;;;;5061796;28;20107;-72
2021/09/19 05:55:44;;;;;;;18.05;15.05;;;10.20;99.90;;;;;;5063453;28;20029;-71
2021/09/19 05:58:09;;;;;;;20.50;15.32;;;10.30;99.90;;;;;;5069934;28;20029;-72
2021/09/19 06:00:36;;;;;;;19.75;14.85;;;10.30;99.90;;;;;;5053221;28;20063;-72
2021/09/19 06:03:03;;;;;;;17.52;14.50;;;10.40;99.90;;;;;;5071614;28;20047;-72
2021/09/19 06:05:28;;;;;;;15.57;13.63;;;10.40;99.90;;;;;;5070939;28;20043;-71
2021/09/19 06:07:54;;;;;;;17.90;14.55;;;10.50;99.90;;;;;;5071458;28;20020;-70
2021/09/19 06:10:20;;;;;;;15.88;13.50;;;10.60;99.90;;;;;;5069096;28;20061;-72
2021/09/19 06:12:45;;;;;;;16.30;13.00;;;10.60;99.90;;;;;;5071162;28;20029;-71
2021/09/19 06:15:11;;;;;;;17.73;15.20;;;10.70;99.90;;;;;;5069587;28;20024;-71
2021/09/19 06:17:37;;;;;;;19.13;14.65;;;10.80;99.90;;;;;;5072065;28;20028;-87
2021/09/19 06:20:04;;;;;;;17.50;13.95;;;10.90;99.90;;;;;;5073757;28;20021;-86
2021/09/19 06:22:30;;;;;;;15.63;12.50;;;11.00;99.90;;;;;;5074688;28;20025;-82
2021/09/19 06:24:56;;;;;;;15.82;12.95;;;11.10;99.90;;;;;;5077289;28;20146;-85
2021/09/19 06:27:21;;;;;;;17.27;13.18;;;11.20;99.90;;;;;;5068853;28;20013;-92
2021/09/19 06:29:48;;;;;;;16.33;13.50;;;11.20;99.90;;;;;;5057612;28;20115;-88
2021/09/19 06:32:14;;;;;;;15.98;12.52;;;11.30;99.90;;;;;;5070761;28;20074;-78
2021/09/19 06:34:40;;;;;;;14.32;11.48;;;11.40;99.90;;;;;;5075241;28;20028;-80
2021/09/19 06:37:08;;;;;;;13.23;11.10;;;11.50;99.90;;;;;;5074914;28;20101;-87
2021/09/19 06:39:35;;;;;;;12.48;11.13;;;11.60;99.90;;;;;;5074855;28;20060;-88
2021/09/19 06:42:01;;;;;;;14.25;11.38;;;11.70;99.90;;;;;;5059858;28;20048;-89
2021/09/19 06:44:27;;;;;;;13.18;11.13;;;11.80;99.90;;;;;;5062291;28;20054;-92
2021/09/19 06:46:56;;;;;;;12.80;11.48;;;11.90;99.90;;;;;;5072187;28;20111;-83
2021/09/19 06:49:23;;;;;;;12.45;11.15;;;11.90;99.90;;;;;;5054187;28;20031;-85
2021/09/19 06:51:49;;;;;;;12.23;10.48;;;12.00;99.90;;;;;;5067624;28;20462;-86
2021/09/19 06:54:15;;;;;;;10.68;9.38;;;12.10;99.90;;;;;;5073855;28;20099;-88
2021/09/19 06:56:40;;;;;;;11.88;9.88;;;12.20;99.90;;;;;;5074445;28;20112;-86
2021/09/19 06:59:06;;;;;;;14.30;10.07;;;12.30;99.90;;;;;;5074231;28;20120;-80
2021/09/19 07:01:32;;;;;;;10.30;8.93;;;12.40;99.90;;;;;;5073766;28;20113;-86
2021/09/19 07:03:58;;;;;;;10.40;9.02;;;12.50;99.90;;;;;;5075181;28;20025;-86
2021/09/19 07:06:24;;;;;;;10.35;9.27;;;12.60;99.90;;;;;;5073536;28;20378;-83
2021/09/19 07:08:50;;;;;;;10.85;8.57;;;12.80;99.90;;;;;;5074903;28;20024;-91
2021/09/19 07:11:15;;;;;;;9.20;8.07;;;12.80;99.90;;;;;;5064214;28;20033;-95
2021/09/19 07:13:41;;;;;;;8.98;7.05;;;12.90;99.90;;;;;;5066544;28;20024;-81
2021/09/19 07:16:07;;;;;;;9.77;7.88;;;13.00;99.90;;;;;;5064385;28;20024;-80
2021/09/19 07:18:32;;;;;;;9.85;7.03;;;13.10;99.90;;;;;;5065882;28;20036;-81
2021/09/19 07:20:58;;;;;;;10.23;7.50;;;13.00;99.90;;;;;;5063913;28;20029;-82
2021/09/19 07:23:25;;;;;;;7.97;7.18;;;13.10;99.90;;;;;;5060339;28;20484;-77
2021/09/19 07:25:52;;;;;;;7.70;6.90;;;13.20;99.90;;;;;;5063575;28;20025;-78
2021/09/19 07:28:18;;;;;;;8.65;7.10;;;13.30;99.90;;;;;;5064915;28;20029;-85
2021/09/19 07:30:44;;;;;;;7.40;6.57;;;13.40;99.90;;;;;;5073364;28;20036;-85
2021/09/19 07:33:10;;;;;;;8.23;6.05;;;13.50;99.90;;;;;;5071630;28;20125;-78
2021/09/19 07:35:38;;;;;;;6.18;5.57;;;13.60;99.90;;;;;;5073670;28;20013;-75
2021/09/19 07:38:04;;;;;;;8.50;6.07;;;13.70;99.90;;;;;;5073423;28;20033;-77
2021/09/19 07:40:30;;;;;;;6.10;5.10;;;14.00;99.90;;;;;;5068770;28;20051;-78
2021/09/19 07:42:58;;;;;;;5.38;4.88;;;14.00;99.90;;;;;;5074044;28;20107;-75
2021/09/19 07:45:24;;;;;;;5.40;4.90;;;14.10;99.90;;;;;;5073123;28;20025;-75
2021/09/19 07:47:50;;;;;;;6.38;5.13;;;14.20;99.90;;;;;;5072863;28;20063;-75
2021/09/19 07:50:16;;;;;;;5.30;4.80;;;14.30;99.90;;;;;;5075779;28;20028;-73
2021/09/19 07:52:42;;;;;;;5.50;4.88;;;14.30;99.90;;;;;;5073277;28;20086;-74
2021/09/19 07:55:08;;;;;;;5.78;5.07;;;14.50;99.90;;;;;;5073021;28;20029;-73
2021/09/19 07:57:33;;;;;;;6.28;4.95;;;14.60;99.90;;;;;;5073974;28;20038;-79
2021/09/19 07:59:59;;;;;;;6.13;4.88;;;14.60;99.90;;;;;;5072630;28;20470;-75
2021/09/19 08:02:25;;;;;;;5.93;4.50;;;14.70;99.90;;;;;;5072256;28;20454;-75
2021/09/19 08:04:50;;;;;;;4.53;4.13;;;14.80;99.90;;;;;;5067039;28;20070;-78
2021/09/19 08:07:21;;;;;;;4.68;3.95;;;14.90;99.90;;;;;;5063665;28;20075;-81
2021/09/19 08:09:47;;;;;;;5.18;4.63;;;15.00;99.90;;;;;;5068043;28;20032;-80
2021/09/19 08:12:13;;;;;;;5.20;4.40;;;15.10;99.90;;;;;;5069333;28;20040;-72
2021/09/19 08:14:38;;;;;;;4.78;3.80;;;15.20;99.90;;;;;;5063685;28;20390;-75
2021/09/19 08:17:04;;;;;;;5.15;4.65;;;15.30;99.90;;;;;;5068047;28;20043;-74
2021/09/19 08:19:29;;;;;;;4.57;4.15;;;15.40;99.90;;;;;;5073822;28;20086;-72
2021/09/19 08:21:55;;;;;;;5.15;4.45;;;15.60;99.90;;;;;;5076359;28;20078;-76
2021/09/19 08:24:22;;;;;;;4.82;4.32;;;15.60;99.90;;;;;;5071881;28;20035;-75
2021/09/19 08:26:49;;;;;;;5.75;3.95;;;15.60;99.90;;;;;;5072212;28;20026;-75
2021/09/19 08:29:16;;;;;;;4.35;3.90;;;15.70;99.90;;;;;;5071598;28;20029;-74
2021/09/19 08:31:42;;;;;;;7.18;4.47;;;15.80;99.90;;;;;;5072341;28;20111;-74
2021/09/19 08:34:09;;;;;;;5.38;4.50;;;15.90;99.90;;;;;;5072147;28;20074;-75
2021/09/19 08:36:36;;;;;;;5.10;3.85;;;16.20;99.90;;;;;;5071382;28;20112;-71
2021/09/19 08:39:04;;;;;;;5.20;4.70;;;16.20;99.90;;;;;;5063054;28;20025;-71
2021/09/19 08:41:29;;;;;;;4.18;3.72;;;16.30;99.90;;;;;;5078960;28;20595;-78
2021/09/19 08:43:55;;;;;;;7.55;4.50;;;16.40;99.90;;;;;;5093156;28;20024;-76
2021/09/19 08:46:23;;;;;;;5.00;4.50;;;16.50;99.90;;;;;;5090776;28;20055;-77
2021/09/19 08:48:49;;;;;;;5.40;4.90;;;16.60;99.90;;;;;;5092836;28;20034;-77
2021/09/19 08:51:15;;;;;;;4.43;4.00;;;16.70;99.90;;;;;;5091503;28;20099;-71
2021/09/19 08:53:41;;;;;;;5.30;4.30;;;16.70;99.90;;;;;;5078236;28;20033;-74
2021/09/19 08:56:08;;;;;;;5.93;4.68;;;16.80;99.90;;;;;;5090557;28;20024;-75
2021/09/19 08:58:34;;;;;;;5.13;4.35;;;16.80;99.90;;;;;;5091534;28;20024;-82
2021/09/19 09:01:01;;;;;;;6.60;3.97;;;16.90;99.90;;;;;;5099967;28;20043;-75
2021/09/19 09:03:30;;;;;;;5.00;3.92;;;16.90;99.90;;;;;;5096715;28;20397;-74
2021/09/19 09:05:56;;;;;;;4.85;3.85;;;17.10;99.90;;;;;;5092460;28;20024;-79
2021/09/19 09:08:23;;;;;;;7.85;4.57;;;17.20;99.90;;;;;;5091437;28;20035;-77
2021/09/19 09:10:51;;;;;;;4.32;3.78;;;17.30;99.90;;;;;;5091442;28;20035;-77
2021/09/19 09:13:26;;;;;;;4.38;3.40;;;17.30;99.90;;;;;;5094958;28;20024;-77
2021/09/19 09:16:04;;;;;;;5.60;4.18;;;17.30;99.90;;;;;;5096714;28;20039;-73
2021/09/19 09:18:37;;;;;;;4.65;4.25;;;17.50;99.90;;;;;;5092830;28;20121;-86
2021/09/19 09:21:08;;;;;;;5.15;4.65;;;17.70;99.90;;;;;;5091284;28;20090;-78
2021/09/19 09:23:38;;;;;;;4.15;3.80;;;17.70;99.90;;;;;;5077438;28;20249;-74
2021/09/19 09:26:12;;;;;;;6.50;3.95;;;17.70;99.90;;;;;;5080733;28;20034;-80
2021/09/19 09:28:52;;;;;;;4.35;3.90;;;17.80;99.90;;;;;;5091775;28;20028;-83
2021/09/19 09:31:39;;;;;;;5.30;4.43;;;17.90;99.90;;;;;;5091090;28;20032;-82
2021/09/19 09:34:10;;;;;;;4.70;4.00;;;17.90;99.90;;;;;;5091898;28;20024;-76
2021/09/19 09:36:49;;;;;;;3.75;3.38;;;18.10;99.90;;;;;;5090623;28;20472;-79
2021/09/19 09:39:31;;;;;;;4.47;4.03;;;18.10;99.90;;;;;;5091334;28;20031;-76
2021/09/19 09:42:02;;;;;;;4.10;3.70;;;18.20;99.90;;;;;;5073340;28;20071;-73
2021/09/19 09:44:35;;;;;;;4.68;4.28;;;18.20;99.90;;;;;;5070332;28;20028;-75
2021/09/19 09:47:07;;;;;;;5.30;3.80;;;18.30;99.90;;;;;;5071213;28;20017;-75
2021/09/19 09:49:44;;;;;;;5.05;4.05;;;18.40;99.90;;;;;;5052558;28;20040;-72
2021/09/19 09:52:29;;;;;;;7.10;4.30;;;18.50;99.90;;;;;;5071219;28;20043;-72
2021/09/19 09:55:01;;;;;;;6.63;4.63;;;18.60;99.90;;;;;;5071202;28;20111;-72
2021/09/19 09:57:36;;;;;;;4.10;3.70;;;18.60;99.90;;;;;;5072023;28;20029;-73
2021/09/19 10:00:17;;;;;;;4.15;3.72;;;18.60;99.90;;;;;;5074950;28;20389;-73
2021/09/19 10:02:46;;;;;;;5.10;4.40;;;18.70;99.90;;;;;;5075515;28;20453;-72
2021/09/19 10:05:13;;;;;;;5.57;4.13;;;18.90;99.90;;;;;;5075307;28;20031;-78
2021/09/19 10:07:40;;;;;;;7.80;4.40;;;19.00;99.90;;;;;;5074596;28;20052;-78
2021/09/19 10:10:09;;;;;;;7.18;4.38;;;19.10;99.70;;;;;;5063675;28;20043;-74
2021/09/19 10:12:35;;;;;;;5.18;4.40;;;19.20;99.50;;;;;;5068628;28;20028;-73
2021/09/19 10:15:01;;;;;;;7.32;4.80;;;19.20;99.90;;;;;;5069877;28;20466;-80
2021/09/19 10:17:28;;;;;;;5.10;3.83;;;19.40;99.50;;;;;;5043255;28;20028;-76
2021/09/19 10:19:54;;;;;;;4.38;3.97;;;19.40;99.00;;;;;;5067395;28;20132;-75
2021/09/19 10:22:49;;;;;;;4.93;4.28;;;19.50;98.90;;;;;;5061994;28;20089;-74
2021/09/19 10:25:24;;;;;;;7.05;4.53;;;19.80;98.30;;;;;;5057750;28;20167;-78
2021/09/19 10:27:50;;;;;;;5.60;4.20;;;19.80;97.70;;;;;;5060615;28;20033;-79
2021/09/19 10:30:18;;;;;;;6.18;4.60;;;19.80;98.30;;;;;;5066925;28;20029;-75
2021/09/19 10:32:46;;;;;;;5.43;3.70;;;19.80;97.70;;;;;;5070158;28;20078;-78
2021/09/19 10:35:18;;;;;;;5.28;4.70;;;19.90;97.80;;;;;;5072233;28;20102;-82
2021/09/19 10:37:53;;;;;;;5.28;4.78;;;20.00;98.00;;;;;;5065596;28;20032;-75
2021/09/19 10:40:33;;;;;;;4.95;4.43;;;20.00;97.00;;;;;;5062988;28;20076;-79
2021/09/19 10:42:59;;;;;;;5.72;4.70;;;20.10;97.30;;;;;;5065885;28;20368;-78
2021/09/19 10:45:43;;;;;;;6.63;5.15;;;20.10;97.80;;;;;;5065990;28;20039;-72
2021/09/19 10:48:26;;;;;;;5.18;4.57;;;20.30;97.30;;;;;;5071684;28;20113;-74
2021/09/19 10:51:02;;;;;;;5.38;4.88;;;20.20;97.50;;;;;;5071817;28;20165;-64
2021/09/19 10:53:28;;;;;;;4.72;4.30;;;20.30;97.50;;;;;;5064899;28;20039;-63
2021/09/19 10:55:59;;;;;;;8.80;4.85;;;20.50;98.10;;;;;;5073243;28;20381;-63
2021/09/19 10:58:28;;;;;;;8.15;5.03;;;20.60;97.70;;;;;;5068376;28;20036;-64
2021/09/19 11:01:18;;;;;;;5.63;4.97;;;20.70;97.70;;;;;;5068435;28;20028;-64
2021/09/19 11:04:08;;;;;;;6.20;5.60;;;20.80;96.90;;;;;;5073854;28;20540;-64
2021/09/19 11:06:39;;;;;;;6.95;6.25;;;20.70;96.20;;;;;;5063142;28;20121;-64
2021/09/19 11:09:27;;;;;;;6.30;5.57;;;20.80;96.00;;;;;;5061900;28;20092;-64
2021/09/19 11:12:14;;;;;;;7.13;6.43;;;20.80;96.70;;;;;;5069123;28;20034;-65
2021/09/19 11:15:01;;;;;;;5.45;4.95;;;;;;;;;;5066848;28;20044;-65
2021/09/19 11:17:29;;;;;;;6.43;5.35;;;;;;;;;;5063375;28;20028;-70
2021/09/19 11:20:13;;;;;;;5.25;4.85;;;20.90;99.90;;;;;;5065208;28;20055;-67
2021/09/19 11:22:39;;;;;;;4.70;4.30;;;;;;;;;;5062435;28;20032;-66
2021/09/19 11:25:06;;;;;;;4.43;3.60;;;;;;;;;;5061820;28;20075;-66
2021/09/19 11:27:32;;;;;;;4.93;4.47;;;;;;;;;;5066881;28;20032;-66
2021/09/19 11:30:00;;;;;;;5.63;5.07;;;;;;;;;;5069663;28;20385;-67
2021/09/19 11:32:28;;;;;;;5.85;5.25;;;;;;;;;;5065206;28;20085;-66
2021/09/19 11:34:57;;;;;;;4.75;4.35;;;;;;;;;;5058350;28;20166;-67
2021/09/19 11:37:25;;;;;;;5.00;4.50;;;21.90;99.90;;;;;;5059155;28;20082;-66
2021/09/19 11:39:50;;;;;;;5.57;4.88;;;22.00;99.10;;;;;;5059557;28;20048;-67
2021/09/19 11:42:16;;;;;;;7.25;5.30;;;22.10;96.30;;;;;;5072806;28;20032;-66
2021/09/19 11:44:50;;;;;;;8.40;5.38;;;22.10;94.30;;;;;;5070180;28;20082;-66
2021/09/19 11:47:18;;;;;;;4.65;4.25;;;22.10;93.60;;;;;;5062658;28;20037;-66
2021/09/19 11:49:45;;;;;;;4.85;4.45;;;22.10;94.90;;;;;;5067541;28;20492;-66
2021/09/19 11:52:11;;;;;;;4.70;4.15;;;;;;;;;;5056661;28;20053;-67
2021/09/19 11:54:40;;;;;;;4.43;4.05;;;22.30;87.10;;;;;;5067240;28;20056;-67
2021/09/19 11:57:05;;;;;;;5.90;4.97;;;22.50;82.00;;;;;;5066910;28;20024;-66
2021/09/19 11:59:31;;;;;;;4.20;3.80;;;22.40;77.70;;;;;;5056635;28;20028;-65
2021/09/19 12:01:57;;;;;;;5.47;4.97;;;;;;;;;;5071873;28;20508;-65
2021/09/19 12:04:27;;;;;;;4.55;4.15;;;;;;;;;;5055198;28;20044;-65
2021/09/19 12:06:52;;;;;;;4.30;3.90;;;22.90;76.10;;;;;;5065139;28;20037;-68
2021/09/19 12:09:20;;;;;;;4.43;3.70;;;23.00;76.40;;;;;;5063719;28;20385;-67
2021/09/19 12:11:50;;;;;;;7.22;4.55;;;23.20;75.70;;;;;;5056879;28;20154;-65
2021/09/19 12:14:20;;;;;;;7.05;4.40;;;23.50;73.30;;;;;;5068643;28;20035;-67
2021/09/19 12:17:02;;;;;;;4.55;4.15;;;23.60;72.70;;;;;;5064283;28;20024;-67
2021/09/19 12:19:29;;;;;;;4.13;3.72;;;23.70;72.90;;;;;;5059302;28;20033;-67
2021/09/19 12:22:02;;;;;;;5.82;3.53;;;23.90;72.20;;;;;;5066953;28;20047;-66
2021/09/19 12:24:31;;;;;;;4.22;3.83;;;24.00;71.30;;;;;;5061394;28;20036;-67
2021/09/19 12:27:13;;;;;;;6.00;3.97;;;24.20;69.60;;;;;;5059743;28;20020;-66
2021/09/19 12:29:40;;;;;;;4.45;4.05;;;24.30;69.00;;;;;;5054463;28;20375;-68
2021/09/19 12:32:07;;;;;;;5.00;4.50;;;23.80;68.70;;;;;;5065219;28;20036;-65
2021/09/19 12:34:35;;;;;;;3.63;3.33;;;23.70;68.70;;;;;;5066641;28;20158;-67
2021/09/19 12:37:01;;;;;;;3.90;3.50;;;23.80;69.20;;;;;;5059791;28;20355;-66
2021/09/19 12:39:32;;;;;;;3.15;2.80;;;24.30;68.30;;;;;;5058637;28;20036;-67
2021/09/19 12:42:04;;;;;;;4.93;3.42;;;24.80;67.40;;;;;;5067158;28;20516;-67
2021/09/19 12:44:33;;;;;;;6.13;3.97;;;25.30;89.30;;;;;;5062315;28;20382;-67